sensor_id;sensor_type;location;lat;lon;timestamp;P1;durP1;ratioP1;P2;durP2;ratioP2
61383;SDS011;63511;49.346;8.798;2023-01-19T00:00:31;45.25;;;20.92;;
61383;SDS011;63511;49.346;8.798;2023-01-19T00:02:58;39.67;;;20.70;;
61383;SDS011;63511;49.346;8.798;2023-01-19T00:05:24;41.70;;;19.38;;
61383;SDS011;63511;49.346;8.798;2023-01-19T00:07:51;39.17;;;20.00;;
61383;SDS011;63511;49.346;8.798;2023-01-19T00:10:19;49.83;;;20.40;;
61383;SDS011;63511;49.346;8.798;2023-01-19T00:12:46;45.08;;;21.23;;
61383;SDS011;63511;49.346;8.798;2023-01-19T00:15:12;45.75;;;21.95;;
61383;SDS011;63511;49.346;8.798;2023-01-19T00:17:39;48.75;;;22.35;;
61383;SDS011;63511;49.346;8.798;2023-01-19T00:20:06;50.17;;;24.45;;
61383;SDS011;63511;49.346;8.798;2023-01-19T00:22:34;45.45;;;22.50;;
61383;SDS011;63511;49.346;8.798;2023-01-19T00:25:01;38.22;;;19.55;;
61383;SDS011;63511;49.346;8.798;2023-01-19T00:27:29;40.47;;;18.52;;
61383;SDS011;63511;49.346;8.798;2023-01-19T00:29:58;43.75;;;19.15;;
61383;SDS011;63511;49.346;8.798;2023-01-19T00:32:25;41.22;;;18.98;;
61383;SDS011;63511;49.346;8.798;2023-01-19T00:34:52;39.83;;;18.83;;
61383;SDS011;63511;49.346;8.798;2023-01-19T00:37:18;42.88;;;20.23;;
61383;SDS011;63511;49.346;8.798;2023-01-19T00:39:45;37.70;;;18.50;;
61383;SDS011;63511;49.346;8.798;2023-01-19T00:42:11;44.30;;;19.88;;
61383;SDS011;63511;49.346;8.798;2023-01-19T00:44:57;43.60;;;19.40;;
61383;SDS011;63511;49.346;8.798;2023-01-19T00:47:24;43.20;;;20.25;;
61383;SDS011;63511;49.346;8.798;2023-01-19T00:49:50;36.53;;;18.45;;
61383;SDS011;63511;49.346;8.798;2023-01-19T00:52:17;36.63;;;18.48;;
61383;SDS011;63511;49.346;8.798;2023-01-19T00:54:43;41.28;;;21.00;;
61383;SDS011;63511;49.346;8.798;2023-01-19T00:57:10;54.08;;;21.70;;
61383;SDS011;63511;49.346;8.798;2023-01-19T00:59:36;51.67;;;19.98;;
61383;SDS011;63511;49.346;8.798;2023-01-19T01:02:04;53.33;;;22.90;;
61383;SDS011;63511;49.346;8.798;2023-01-19T01:04:31;49.10;;;22.27;;
61383;SDS011;63511;49.346;8.798;2023-01-19T01:06:58;50.50;;;20.88;;
61383;SDS011;63511;49.346;8.798;2023-01-19T01:09:24;48.05;;;20.95;;
61383;SDS011;63511;49.346;8.798;2023-01-19T01:11:51;48.75;;;20.60;;
61383;SDS011;63511;49.346;8.798;2023-01-19T01:14:18;37.13;;;19.85;;
61383;SDS011;63511;49.346;8.798;2023-01-19T01:16:44;39.10;;;19.50;;
61383;SDS011;63511;49.346;8.798;2023-01-19T01:22:34;47.17;;;20.35;;
61383;SDS011;63511;49.346;8.798;2023-01-19T01:25:03;56.25;;;20.63;;
61383;SDS011;63511;49.346;8.798;2023-01-19T01:27:30;47.03;;;22.35;;
61383;SDS011;63511;49.346;8.798;2023-01-19T01:29:56;45.72;;;20.48;;
61383;SDS011;63511;49.346;8.798;2023-01-19T01:32:23;55.08;;;23.27;;
61383;SDS011;63511;49.346;8.798;2023-01-19T01:34:49;48.47;;;22.80;;
61383;SDS011;63511;49.346;8.798;2023-01-19T01:37:16;51.33;;;24.40;;
61383;SDS011;63511;49.346;8.798;2023-01-19T01:39:44;49.75;;;22.58;;
61383;SDS011;63511;49.346;8.798;2023-01-19T01:42:13;53.60;;;23.15;;
61383;SDS011;63511;49.346;8.798;2023-01-19T01:44:43;51.25;;;22.33;;
61383;SDS011;63511;49.346;8.798;2023-01-19T01:47:15;48.25;;;22.67;;
61383;SDS011;63511;49.346;8.798;2023-01-19T01:49:47;49.13;;;20.85;;
61383;SDS011;63511;49.346;8.798;2023-01-19T01:52:15;46.80;;;20.63;;
61383;SDS011;63511;49.346;8.798;2023-01-19T01:54:44;44.45;;;21.00;;
61383;SDS011;63511;49.346;8.798;2023-01-19T01:57:11;45.72;;;23.27;;
61383;SDS011;63511;49.346;8.798;2023-01-19T01:59:39;52.60;;;22.67;;
61383;SDS011;63511;49.346;8.798;2023-01-19T02:02:08;49.75;;;23.73;;
61383;SDS011;63511;49.346;8.798;2023-01-19T02:04:56;45.90;;;22.90;;
61383;SDS011;63511;49.346;8.798;2023-01-19T02:07:28;50.78;;;23.65;;
61383;SDS011;63511;49.346;8.798;2023-01-19T02:10:21;52.83;;;21.67;;
61383;SDS011;63511;49.346;8.798;2023-01-19T02:13:05;48.72;;;22.33;;
61383;SDS011;63511;49.346;8.798;2023-01-19T02:15:45;52.35;;;22.58;;
61383;SDS011;63511;49.346;8.798;2023-01-19T02:18:13;57.30;;;22.13;;
61383;SDS011;63511;49.346;8.798;2023-01-19T02:20:41;50.88;;;23.02;;
61383;SDS011;63511;49.346;8.798;2023-01-19T02:23:14;45.67;;;21.30;;
61383;SDS011;63511;49.346;8.798;2023-01-19T02:25:50;48.30;;;22.20;;
61383;SDS011;63511;49.346;8.798;2023-01-19T02:28:18;49.10;;;23.33;;
61383;SDS011;63511;49.346;8.798;2023-01-19T02:30:44;50.70;;;22.05;;
61383;SDS011;63511;49.346;8.798;2023-01-19T02:33:11;44.92;;;23.35;;
61383;SDS011;63511;49.346;8.798;2023-01-19T02:35:38;41.15;;;21.40;;
61383;SDS011;63511;49.346;8.798;2023-01-19T02:38:07;44.70;;;22.42;;
61383;SDS011;63511;49.346;8.798;2023-01-19T02:40:35;41.13;;;20.05;;
61383;SDS011;63511;49.346;8.798;2023-01-19T02:43:04;54.33;;;21.33;;
61383;SDS011;63511;49.346;8.798;2023-01-19T02:45:33;41.58;;;22.17;;
61383;SDS011;63511;49.346;8.798;2023-01-19T02:48:01;42.10;;;20.60;;
61383;SDS011;63511;49.346;8.798;2023-01-19T02:50:33;42.40;;;20.73;;
61383;SDS011;63511;49.346;8.798;2023-01-19T02:53:05;40.80;;;20.48;;
61383;SDS011;63511;49.346;8.798;2023-01-19T02:55:43;46.20;;;22.38;;
61383;SDS011;63511;49.346;8.798;2023-01-19T02:58:19;45.08;;;21.00;;
61383;SDS011;63511;49.346;8.798;2023-01-19T03:00:55;44.25;;;21.52;;
61383;SDS011;63511;49.346;8.798;2023-01-19T03:03:33;46.63;;;21.15;;
61383;SDS011;63511;49.346;8.798;2023-01-19T03:06:10;48.95;;;19.90;;
61383;SDS011;63511;49.346;8.798;2023-01-19T03:08:48;53.03;;;21.13;;
61383;SDS011;63511;49.346;8.798;2023-01-19T03:11:20;41.58;;;20.30;;
61383;SDS011;63511;49.346;8.798;2023-01-19T03:13:52;47.38;;;21.58;;
61383;SDS011;63511;49.346;8.798;2023-01-19T03:16:22;43.50;;;20.83;;
61383;SDS011;63511;49.346;8.798;2023-01-19T03:18:55;46.35;;;21.13;;
61383;SDS011;63511;49.346;8.798;2023-01-19T03:21:27;42.38;;;21.50;;
61383;SDS011;63511;49.346;8.798;2023-01-19T03:23:55;45.35;;;22.48;;
61383;SDS011;63511;49.346;8.798;2023-01-19T03:26:27;42.25;;;20.75;;
61383;SDS011;63511;49.346;8.798;2023-01-19T03:28:58;39.70;;;20.52;;
61383;SDS011;63511;49.346;8.798;2023-01-19T03:31:28;41.53;;;20.52;;
61383;SDS011;63511;49.346;8.798;2023-01-19T03:33:58;50.85;;;22.30;;
61383;SDS011;63511;49.346;8.798;2023-01-19T03:36:28;38.97;;;21.20;;
61383;SDS011;63511;49.346;8.798;2023-01-19T03:39:00;41.25;;;21.08;;
61383;SDS011;63511;49.346;8.798;2023-01-19T03:41:29;37.28;;;20.02;;
61383;SDS011;63511;49.346;8.798;2023-01-19T03:43:59;53.30;;;20.42;;
61383;SDS011;63511;49.346;8.798;2023-01-19T03:46:27;43.75;;;20.38;;
61383;SDS011;63511;49.346;8.798;2023-01-19T03:48:55;45.83;;;19.17;;
61383;SDS011;63511;49.346;8.798;2023-01-19T03:51:22;44.97;;;21.25;;
61383;SDS011;63511;49.346;8.798;2023-01-19T03:53:49;44.22;;;20.33;;
61383;SDS011;63511;49.346;8.798;2023-01-19T03:56:16;51.08;;;20.23;;
61383;SDS011;63511;49.346;8.798;2023-01-19T03:58:44;38.30;;;18.83;;
61383;SDS011;63511;49.346;8.798;2023-01-19T04:01:13;30.77;;;17.60;;
61383;SDS011;63511;49.346;8.798;2023-01-19T04:03:40;38.55;;;18.85;;
61383;SDS011;63511;49.346;8.798;2023-01-19T04:06:07;39.33;;;21.45;;
61383;SDS011;63511;49.346;8.798;2023-01-19T04:08:33;35.78;;;19.40;;
61383;SDS011;63511;49.346;8.798;2023-01-19T04:11:00;43.25;;;20.88;;
61383;SDS011;63511;49.346;8.798;2023-01-19T04:13:27;45.92;;;20.02;;
61383;SDS011;63511;49.346;8.798;2023-01-19T04:15:54;50.67;;;22.70;;
61383;SDS011;63511;49.346;8.798;2023-01-19T04:18:25;41.63;;;20.38;;
61383;SDS011;63511;49.346;8.798;2023-01-19T04:20:51;48.30;;;20.17;;
61383;SDS011;63511;49.346;8.798;2023-01-19T04:23:18;32.95;;;18.15;;
61383;SDS011;63511;49.346;8.798;2023-01-19T04:25:45;41.67;;;20.50;;
61383;SDS011;63511;49.346;8.798;2023-01-19T04:28:12;41.70;;;18.52;;
61383;SDS011;63511;49.346;8.798;2023-01-19T04:30:38;39.28;;;18.67;;
61383;SDS011;63511;49.346;8.798;2023-01-19T04:33:05;37.60;;;18.55;;
61383;SDS011;63511;49.346;8.798;2023-01-19T04:35:33;46.53;;;18.58;;
61383;SDS011;63511;49.346;8.798;2023-01-19T04:37:59;46.53;;;18.13;;
61383;SDS011;63511;49.346;8.798;2023-01-19T04:40:26;36.92;;;19.42;;
61383;SDS011;63511;49.346;8.798;2023-01-19T04:42:52;39.40;;;20.40;;
61383;SDS011;63511;49.346;8.798;2023-01-19T04:45:19;42.05;;;18.95;;
61383;SDS011;63511;49.346;8.798;2023-01-19T04:47:45;36.40;;;19.38;;
61383;SDS011;63511;49.346;8.798;2023-01-19T04:50:12;44.20;;;19.48;;
61383;SDS011;63511;49.346;8.798;2023-01-19T04:52:40;40.88;;;19.80;;
61383;SDS011;63511;49.346;8.798;2023-01-19T04:55:07;36.83;;;20.95;;
61383;SDS011;63511;49.346;8.798;2023-01-19T04:57:34;37.20;;;20.17;;
61383;SDS011;63511;49.346;8.798;2023-01-19T05:00:01;38.30;;;18.48;;
61383;SDS011;63511;49.346;8.798;2023-01-19T05:02:28;43.63;;;18.90;;
61383;SDS011;63511;49.346;8.798;2023-01-19T05:04:54;37.20;;;19.52;;
61383;SDS011;63511;49.346;8.798;2023-01-19T05:07:21;49.35;;;21.83;;
61383;SDS011;63511;49.346;8.798;2023-01-19T05:09:49;41.28;;;21.25;;
61383;SDS011;63511;49.346;8.798;2023-01-19T05:12:15;41.80;;;19.23;;
61383;SDS011;63511;49.346;8.798;2023-01-19T05:14:42;45.85;;;21.73;;
61383;SDS011;63511;49.346;8.798;2023-01-19T05:17:09;36.78;;;20.02;;
61383;SDS011;63511;49.346;8.798;2023-01-19T05:19:35;40.92;;;18.65;;
61383;SDS011;63511;49.346;8.798;2023-01-19T05:22:02;36.78;;;18.70;;
61383;SDS011;63511;49.346;8.798;2023-01-19T05:24:29;31.83;;;18.42;;
61383;SDS011;63511;49.346;8.798;2023-01-19T05:26:58;43.10;;;19.50;;
61383;SDS011;63511;49.346;8.798;2023-01-19T05:29:24;40.92;;;19.98;;
61383;SDS011;63511;49.346;8.798;2023-01-19T05:31:51;47.90;;;21.35;;
61383;SDS011;63511;49.346;8.798;2023-01-19T05:34:18;43.55;;;19.58;;
61383;SDS011;63511;49.346;8.798;2023-01-19T05:36:44;33.05;;;18.52;;
61383;SDS011;63511;49.346;8.798;2023-01-19T05:39:11;38.58;;;19.42;;
61383;SDS011;63511;49.346;8.798;2023-01-19T05:41:37;39.47;;;18.98;;
61383;SDS011;63511;49.346;8.798;2023-01-19T05:44:07;44.00;;;20.17;;
61383;SDS011;63511;49.346;8.798;2023-01-19T05:46:34;35.13;;;20.40;;
61383;SDS011;63511;49.346;8.798;2023-01-19T05:49:01;39.30;;;19.85;;
61383;SDS011;63511;49.346;8.798;2023-01-19T05:51:29;35.67;;;19.58;;
61383;SDS011;63511;49.346;8.798;2023-01-19T05:53:59;43.30;;;20.10;;
61383;SDS011;63511;49.346;8.798;2023-01-19T05:56:26;42.72;;;20.92;;
61383;SDS011;63511;49.346;8.798;2023-01-19T05:58:52;39.70;;;19.73;;
61383;SDS011;63511;49.346;8.798;2023-01-19T06:01:20;38.72;;;19.40;;
61383;SDS011;63511;49.346;8.798;2023-01-19T06:03:47;34.80;;;18.83;;
61383;SDS011;63511;49.346;8.798;2023-01-19T06:06:13;42.38;;;19.80;;
61383;SDS011;63511;49.346;8.798;2023-01-19T06:08:41;38.25;;;19.08;;
61383;SDS011;63511;49.346;8.798;2023-01-19T06:11:08;40.72;;;20.30;;
61383;SDS011;63511;49.346;8.798;2023-01-19T06:13:35;34.40;;;19.48;;
61383;SDS011;63511;49.346;8.798;2023-01-19T06:16:04;37.92;;;18.13;;
61383;SDS011;63511;49.346;8.798;2023-01-19T06:18:33;33.55;;;17.23;;
61383;SDS011;63511;49.346;8.798;2023-01-19T06:21:01;33.75;;;18.33;;
61383;SDS011;63511;49.346;8.798;2023-01-19T06:23:29;41.28;;;20.35;;
61383;SDS011;63511;49.346;8.798;2023-01-19T06:25:56;50.53;;;20.60;;
61383;SDS011;63511;49.346;8.798;2023-01-19T06:28:23;49.22;;;20.98;;
61383;SDS011;63511;49.346;8.798;2023-01-19T06:30:50;38.05;;;19.63;;
61383;SDS011;63511;49.346;8.798;2023-01-19T06:33:18;44.40;;;21.27;;
61383;SDS011;63511;49.346;8.798;2023-01-19T06:35:47;40.13;;;19.40;;
61383;SDS011;63511;49.346;8.798;2023-01-19T06:38:15;34.72;;;18.65;;
61383;SDS011;63511;49.346;8.798;2023-01-19T06:40:43;32.33;;;18.08;;
61383;SDS011;63511;49.346;8.798;2023-01-19T06:43:10;40.22;;;19.92;;
61383;SDS011;63511;49.346;8.798;2023-01-19T06:45:37;38.70;;;19.60;;
61383;SDS011;63511;49.346;8.798;2023-01-19T06:48:06;39.38;;;20.02;;
61383;SDS011;63511;49.346;8.798;2023-01-19T06:50:33;34.55;;;18.08;;
61383;SDS011;63511;49.346;8.798;2023-01-19T06:53:04;35.53;;;18.55;;
61383;SDS011;63511;49.346;8.798;2023-01-19T06:55:31;36.22;;;18.30;;
61383;SDS011;63511;49.346;8.798;2023-01-19T06:58:02;36.42;;;18.58;;
61383;SDS011;63511;49.346;8.798;2023-01-19T07:00:28;44.60;;;20.98;;
61383;SDS011;63511;49.346;8.798;2023-01-19T07:02:58;38.88;;;18.27;;
61383;SDS011;63511;49.346;8.798;2023-01-19T07:05:25;35.70;;;18.63;;
61383;SDS011;63511;49.346;8.798;2023-01-19T07:07:52;32.17;;;18.27;;
61383;SDS011;63511;49.346;8.798;2023-01-19T07:10:21;28.27;;;17.30;;
61383;SDS011;63511;49.346;8.798;2023-01-19T07:12:48;41.55;;;20.45;;
61383;SDS011;63511;49.346;8.798;2023-01-19T07:15:16;30.20;;;16.80;;
61383;SDS011;63511;49.346;8.798;2023-01-19T07:17:46;32.08;;;15.88;;
61383;SDS011;63511;49.346;8.798;2023-01-19T07:20:13;37.67;;;17.60;;
61383;SDS011;63511;49.346;8.798;2023-01-19T07:22:43;31.20;;;15.98;;
61383;SDS011;63511;49.346;8.798;2023-01-19T07:25:10;37.22;;;19.27;;
61383;SDS011;63511;49.346;8.798;2023-01-19T07:27:38;38.30;;;17.85;;
61383;SDS011;63511;49.346;8.798;2023-01-19T07:30:05;36.03;;;17.45;;
61383;SDS011;63511;49.346;8.798;2023-01-19T07:32:35;49.00;;;22.63;;
61383;SDS011;63511;49.346;8.798;2023-01-19T07:35:02;32.78;;;16.60;;
61383;SDS011;63511;49.346;8.798;2023-01-19T07:37:29;52.50;;;23.83;;
61383;SDS011;63511;49.346;8.798;2023-01-19T07:39:56;39.13;;;17.75;;
61383;SDS011;63511;49.346;8.798;2023-01-19T07:42:23;65.07;;;30.08;;
61383;SDS011;63511;49.346;8.798;2023-01-19T07:44:51;33.30;;;17.15;;
61383;SDS011;63511;49.346;8.798;2023-01-19T07:47:18;42.55;;;18.65;;
61383;SDS011;63511;49.346;8.798;2023-01-19T07:49:45;33.28;;;15.20;;
61383;SDS011;63511;49.346;8.798;2023-01-19T07:52:12;33.78;;;16.70;;
61383;SDS011;63511;49.346;8.798;2023-01-19T07:54:39;34.38;;;17.40;;
61383;SDS011;63511;49.346;8.798;2023-01-19T07:57:05;29.25;;;15.38;;
61383;SDS011;63511;49.346;8.798;2023-01-19T07:59:32;29.23;;;14.32;;
61383;SDS011;63511;49.346;8.798;2023-01-19T08:02:00;28.77;;;14.15;;
61383;SDS011;63511;49.346;8.798;2023-01-19T08:04:27;32.28;;;15.98;;
61383;SDS011;63511;49.346;8.798;2023-01-19T08:06:54;25.20;;;15.98;;
61383;SDS011;63511;49.346;8.798;2023-01-19T08:09:22;26.80;;;14.30;;
61383;SDS011;63511;49.346;8.798;2023-01-19T08:11:48;31.83;;;14.30;;
61383;SDS011;63511;49.346;8.798;2023-01-19T08:14:15;24.30;;;13.93;;
61383;SDS011;63511;49.346;8.798;2023-01-19T08:16:42;36.85;;;17.95;;
61383;SDS011;63511;49.346;8.798;2023-01-19T08:19:10;23.50;;;13.50;;
61383;SDS011;63511;49.346;8.798;2023-01-19T08:21:37;34.38;;;13.90;;
61383;SDS011;63511;49.346;8.798;2023-01-19T08:24:04;26.48;;;13.80;;
61383;SDS011;63511;49.346;8.798;2023-01-19T08:26:32;26.02;;;15.45;;
61383;SDS011;63511;49.346;8.798;2023-01-19T08:29:00;26.77;;;14.02;;
61383;SDS011;63511;49.346;8.798;2023-01-19T08:31:29;25.70;;;15.32;;
61383;SDS011;63511;49.346;8.798;2023-01-19T08:33:56;30.55;;;15.73;;
61383;SDS011;63511;49.346;8.798;2023-01-19T08:36:25;28.00;;;13.30;;
61383;SDS011;63511;49.346;8.798;2023-01-19T08:38:54;33.45;;;14.40;;
61383;SDS011;63511;49.346;8.798;2023-01-19T08:41:21;25.70;;;13.50;;
61383;SDS011;63511;49.346;8.798;2023-01-19T08:43:47;24.42;;;12.45;;
61383;SDS011;63511;49.346;8.798;2023-01-19T08:46:14;26.67;;;13.00;;
61383;SDS011;63511;49.346;8.798;2023-01-19T08:48:44;22.13;;;12.40;;
61383;SDS011;63511;49.346;8.798;2023-01-19T08:51:16;23.85;;;12.95;;
61383;SDS011;63511;49.346;8.798;2023-01-19T08:53:44;23.98;;;13.40;;
61383;SDS011;63511;49.346;8.798;2023-01-19T08:56:14;29.38;;;13.63;;
61383;SDS011;63511;49.346;8.798;2023-01-19T08:58:41;31.30;;;13.70;;
61383;SDS011;63511;49.346;8.798;2023-01-19T09:01:09;22.58;;;12.60;;
61383;SDS011;63511;49.346;8.798;2023-01-19T09:03:38;29.67;;;14.52;;
61383;SDS011;63511;49.346;8.798;2023-01-19T09:06:04;27.42;;;12.88;;
61383;SDS011;63511;49.346;8.798;2023-01-19T09:08:31;27.33;;;12.27;;
61383;SDS011;63511;49.346;8.798;2023-01-19T09:11:00;27.75;;;12.02;;
61383;SDS011;63511;49.346;8.798;2023-01-19T09:13:27;23.02;;;13.38;;
61383;SDS011;63511;49.346;8.798;2023-01-19T09:15:56;19.55;;;12.23;;
61383;SDS011;63511;49.346;8.798;2023-01-19T09:18:22;24.70;;;12.48;;
61383;SDS011;63511;49.346;8.798;2023-01-19T09:20:49;24.13;;;13.60;;
61383;SDS011;63511;49.346;8.798;2023-01-19T09:23:16;25.45;;;14.25;;
61383;SDS011;63511;49.346;8.798;2023-01-19T09:25:45;30.80;;;14.70;;
61383;SDS011;63511;49.346;8.798;2023-01-19T09:28:14;22.77;;;13.32;;
61383;SDS011;63511;49.346;8.798;2023-01-19T09:30:42;25.63;;;13.90;;
61383;SDS011;63511;49.346;8.798;2023-01-19T09:33:10;24.50;;;14.30;;
61383;SDS011;63511;49.346;8.798;2023-01-19T09:35:38;30.05;;;15.05;;
61383;SDS011;63511;49.346;8.798;2023-01-19T09:38:06;27.52;;;13.05;;
61383;SDS011;63511;49.346;8.798;2023-01-19T09:40:35;24.98;;;15.02;;
61383;SDS011;63511;49.346;8.798;2023-01-19T09:43:11;24.35;;;13.43;;
61383;SDS011;63511;49.346;8.798;2023-01-19T09:45:42;22.10;;;13.23;;
61383;SDS011;63511;49.346;8.798;2023-01-19T09:48:29;22.80;;;13.27;;
61383;SDS011;63511;49.346;8.798;2023-01-19T09:51:04;23.08;;;14.02;;
61383;SDS011;63511;49.346;8.798;2023-01-19T09:53:42;22.83;;;13.32;;
61383;SDS011;63511;49.346;8.798;2023-01-19T09:56:16;30.63;;;15.35;;
61383;SDS011;63511;49.346;8.798;2023-01-19T09:58:45;27.98;;;14.27;;
61383;SDS011;63511;49.346;8.798;2023-01-19T10:01:17;29.65;;;14.05;;
61383;SDS011;63511;49.346;8.798;2023-01-19T10:03:57;32.35;;;15.85;;
61383;SDS011;63511;49.346;8.798;2023-01-19T10:06:58;34.08;;;14.55;;
61383;SDS011;63511;49.346;8.798;2023-01-19T10:09:32;23.17;;;13.27;;
61383;SDS011;63511;49.346;8.798;2023-01-19T10:12:07;25.13;;;13.05;;
61383;SDS011;63511;49.346;8.798;2023-01-19T10:14:39;23.13;;;12.93;;
61383;SDS011;63511;49.346;8.798;2023-01-19T10:17:15;40.95;;;18.70;;
61383;SDS011;63511;49.346;8.798;2023-01-19T10:19:52;29.73;;;17.90;;
61383;SDS011;63511;49.346;8.798;2023-01-19T10:22:22;20.20;;;10.73;;
61383;SDS011;63511;49.346;8.798;2023-01-19T10:24:51;22.98;;;11.98;;
61383;SDS011;63511;49.346;8.798;2023-01-19T10:32:48;27.17;;;12.57;;
61383;SDS011;63511;49.346;8.798;2023-01-19T10:35:20;46.17;;;14.15;;
61383;SDS011;63511;49.346;8.798;2023-01-19T10:37:49;26.13;;;12.60;;
61383;SDS011;63511;49.346;8.798;2023-01-19T10:40:21;25.85;;;11.80;;
61383;SDS011;63511;49.346;8.798;2023-01-19T10:42:54;34.60;;;12.65;;
61383;SDS011;63511;49.346;8.798;2023-01-19T10:45:27;49.78;;;18.88;;
61383;SDS011;63511;49.346;8.798;2023-01-19T10:47:58;29.42;;;13.27;;
61383;SDS011;63511;49.346;8.798;2023-01-19T10:50:32;28.35;;;13.10;;
61383;SDS011;63511;49.346;8.798;2023-01-19T10:53:05;28.92;;;12.65;;
61383;SDS011;63511;49.346;8.798;2023-01-19T10:55:43;25.20;;;12.07;;
61383;SDS011;63511;49.346;8.798;2023-01-19T10:58:25;28.17;;;13.45;;
61383;SDS011;63511;49.346;8.798;2023-01-19T11:00:54;24.00;;;12.63;;
61383;SDS011;63511;49.346;8.798;2023-01-19T11:03:23;23.73;;;12.70;;
61383;SDS011;63511;49.346;8.798;2023-01-19T11:05:57;25.35;;;13.38;;
61383;SDS011;63511;49.346;8.798;2023-01-19T11:08:52;27.10;;;13.77;;
61383;SDS011;63511;49.346;8.798;2023-01-19T11:11:47;27.92;;;13.35;;
61383;SDS011;63511;49.346;8.798;2023-01-19T11:14:17;26.80;;;13.00;;
61383;SDS011;63511;49.346;8.798;2023-01-19T11:19:20;27.63;;;11.73;;
61383;SDS011;63511;49.346;8.798;2023-01-19T11:21:51;23.00;;;12.57;;
61383;SDS011;63511;49.346;8.798;2023-01-19T11:24:19;22.95;;;12.35;;
61383;SDS011;63511;49.346;8.798;2023-01-19T11:26:46;25.20;;;13.10;;
61383;SDS011;63511;49.346;8.798;2023-01-19T11:29:16;23.85;;;12.45;;
61383;SDS011;63511;49.346;8.798;2023-01-19T11:31:48;27.63;;;13.73;;
61383;SDS011;63511;49.346;8.798;2023-01-19T11:34:25;25.33;;;12.40;;
61383;SDS011;63511;49.346;8.798;2023-01-19T11:36:57;22.00;;;11.77;;
61383;SDS011;63511;49.346;8.798;2023-01-19T11:39:26;21.23;;;11.57;;
61383;SDS011;63511;49.346;8.798;2023-01-19T11:44:26;23.88;;;11.00;;
61383;SDS011;63511;49.346;8.798;2023-01-19T11:46:56;21.45;;;11.73;;
61383;SDS011;63511;49.346;8.798;2023-01-19T11:49:28;19.83;;;10.88;;
61383;SDS011;63511;49.346;8.798;2023-01-19T11:52:04;19.40;;;10.75;;
61383;SDS011;63511;49.346;8.798;2023-01-19T11:54:39;20.75;;;11.38;;
61383;SDS011;63511;49.346;8.798;2023-01-19T11:57:12;15.93;;;9.90;;
61383;SDS011;63511;49.346;8.798;2023-01-19T11:59:41;22.90;;;11.57;;
61383;SDS011;63511;49.346;8.798;2023-01-19T12:02:12;23.42;;;12.95;;
61383;SDS011;63511;49.346;8.798;2023-01-19T12:04:47;25.27;;;10.65;;
61383;SDS011;63511;49.346;8.798;2023-01-19T12:07:21;16.40;;;10.43;;
61383;SDS011;63511;49.346;8.798;2023-01-19T12:09:54;23.45;;;12.57;;
61383;SDS011;63511;49.346;8.798;2023-01-19T12:12:27;18.73;;;10.45;;
61383;SDS011;63511;49.346;8.798;2023-01-19T12:14:58;25.58;;;12.55;;
61383;SDS011;63511;49.346;8.798;2023-01-19T12:17:28;17.75;;;10.45;;
61383;SDS011;63511;49.346;8.798;2023-01-19T12:20:02;19.20;;;9.55;;
61383;SDS011;63511;49.346;8.798;2023-01-19T12:22:34;18.90;;;10.50;;
61383;SDS011;63511;49.346;8.798;2023-01-19T12:25:11;22.13;;;10.73;;
61383;SDS011;63511;49.346;8.798;2023-01-19T12:27:45;18.13;;;10.95;;
61383;SDS011;63511;49.346;8.798;2023-01-19T12:30:18;20.02;;;10.55;;
61383;SDS011;63511;49.346;8.798;2023-01-19T12:32:47;28.75;;;10.93;;
61383;SDS011;63511;49.346;8.798;2023-01-19T12:38:32;25.98;;;13.43;;
61383;SDS011;63511;49.346;8.798;2023-01-19T12:41:14;21.35;;;11.32;;
61383;SDS011;63511;49.346;8.798;2023-01-19T12:49:23;17.48;;;10.05;;
61383;SDS011;63511;49.346;8.798;2023-01-19T12:52:10;17.73;;;11.05;;
61383;SDS011;63511;49.346;8.798;2023-01-19T12:54:48;24.25;;;11.10;;
61383;SDS011;63511;49.346;8.798;2023-01-19T12:57:18;18.58;;;10.57;;
61383;SDS011;63511;49.346;8.798;2023-01-19T12:59:55;15.65;;;8.98;;
61383;SDS011;63511;49.346;8.798;2023-01-19T13:02:30;20.83;;;10.90;;
61383;SDS011;63511;49.346;8.798;2023-01-19T13:05:11;20.08;;;11.82;;
61383;SDS011;63511;49.346;8.798;2023-01-19T13:10:59;20.70;;;11.43;;
61383;SDS011;63511;49.346;8.798;2023-01-19T13:13:38;20.13;;;9.93;;
61383;SDS011;63511;49.346;8.798;2023-01-19T13:19:16;18.60;;;9.52;;
61383;SDS011;63511;49.346;8.798;2023-01-19T13:21:47;20.92;;;10.65;;
61383;SDS011;63511;49.346;8.798;2023-01-19T13:24:17;18.02;;;9.80;;
61383;SDS011;63511;49.346;8.798;2023-01-19T13:26:52;19.20;;;10.40;;
61383;SDS011;63511;49.346;8.798;2023-01-19T13:29:24;19.73;;;11.10;;
61383;SDS011;63511;49.346;8.798;2023-01-19T13:31:55;18.52;;;9.57;;
61383;SDS011;63511;49.346;8.798;2023-01-19T13:34:27;20.92;;;9.05;;
61383;SDS011;63511;49.346;8.798;2023-01-19T13:36:56;16.60;;;8.80;;
61383;SDS011;63511;49.346;8.798;2023-01-19T13:39:26;18.95;;;8.77;;
61383;SDS011;63511;49.346;8.798;2023-01-19T13:41:56;24.23;;;9.95;;
61383;SDS011;63511;49.346;8.798;2023-01-19T13:44:26;21.63;;;10.18;;
61383;SDS011;63511;49.346;8.798;2023-01-19T13:46:54;23.38;;;10.48;;
61383;SDS011;63511;49.346;8.798;2023-01-19T13:49:25;18.08;;;10.57;;
61383;SDS011;63511;49.346;8.798;2023-01-19T13:52:04;22.25;;;10.02;;
61383;SDS011;63511;49.346;8.798;2023-01-19T13:54:37;18.10;;;9.73;;
61383;SDS011;63511;49.346;8.798;2023-01-19T13:57:19;16.42;;;9.07;;
61383;SDS011;63511;49.346;8.798;2023-01-19T13:59:59;14.55;;;8.25;;
61383;SDS011;63511;49.346;8.798;2023-01-19T14:02:26;15.10;;;9.35;;
61383;SDS011;63511;49.346;8.798;2023-01-19T14:04:53;14.55;;;8.10;;
61383;SDS011;63511;49.346;8.798;2023-01-19T14:07:21;13.77;;;9.10;;
61383;SDS011;63511;49.346;8.798;2023-01-19T14:10:01;16.55;;;8.90;;
61383;SDS011;63511;49.346;8.798;2023-01-19T14:12:28;14.40;;;8.52;;
61383;SDS011;63511;49.346;8.798;2023-01-19T14:14:56;16.52;;;9.90;;
61383;SDS011;63511;49.346;8.798;2023-01-19T14:17:23;19.98;;;11.18;;
61383;SDS011;63511;49.346;8.798;2023-01-19T14:19:52;19.95;;;9.40;;
61383;SDS011;63511;49.346;8.798;2023-01-19T14:22:19;18.40;;;9.75;;
61383;SDS011;63511;49.346;8.798;2023-01-19T14:24:46;15.35;;;9.88;;
61383;SDS011;63511;49.346;8.798;2023-01-19T14:27:19;14.52;;;7.45;;
61383;SDS011;63511;49.346;8.798;2023-01-19T14:29:48;17.27;;;9.07;;
61383;SDS011;63511;49.346;8.798;2023-01-19T14:32:18;15.23;;;7.97;;
61383;SDS011;63511;49.346;8.798;2023-01-19T14:34:46;21.70;;;8.30;;
61383;SDS011;63511;49.346;8.798;2023-01-19T14:37:22;19.42;;;9.88;;
61383;SDS011;63511;49.346;8.798;2023-01-19T14:39:52;19.58;;;7.95;;
61383;SDS011;63511;49.346;8.798;2023-01-19T14:42:25;15.30;;;8.15;;
61383;SDS011;63511;49.346;8.798;2023-01-19T14:44:55;13.50;;;7.80;;
61383;SDS011;63511;49.346;8.798;2023-01-19T14:47:26;21.10;;;9.82;;
61383;SDS011;63511;49.346;8.798;2023-01-19T14:49:56;14.90;;;7.97;;
61383;SDS011;63511;49.346;8.798;2023-01-19T14:52:28;22.05;;;8.32;;
61383;SDS011;63511;49.346;8.798;2023-01-19T14:54:59;23.88;;;8.45;;
61383;SDS011;63511;49.346;8.798;2023-01-19T14:57:29;17.40;;;9.07;;
61383;SDS011;63511;49.346;8.798;2023-01-19T15:04:21;14.27;;;6.88;;
61383;SDS011;63511;49.346;8.798;2023-01-19T15:08:11;11.80;;;7.20;;
61383;SDS011;63511;49.346;8.798;2023-01-19T15:24:50;10.10;;;6.30;;
61383;SDS011;63511;49.346;8.798;2023-01-19T15:27:21;18.92;;;6.60;;